BWA415 TBPB-TFFR
Flight info
| Callsign | BWA415 |
|---|---|
| Flight time | 0h 49m |
| Altitude | 32000 |
| Route | SEKUN DCT DOM DOM2Z |
| Aircraft | B738/M-SDE2E3FGHIRWXY/LB1 |
Departure
| Time | 2026-04-30 17:56 |
|---|---|
| Airport | Grantley Adams International Airport (TBPB) |
Arrival
| Time | 2026-04-30 18:45 |
|---|---|
| Airport | Maryse Condé International Airport (TFFR) |
| Time | Latitude | Longitude | Altitude | Speed | Heading |
|---|---|---|---|---|---|
| 2026-04-30 17:39 | 13.07902 | -59.48689 | 175 ft | 0 kts | 348° |
| 2026-04-30 17:48 | 13.07860 | -59.48680 | 175 ft | 2 kts | 348° |
| 2026-04-30 17:48 | 13.07839 | -59.48660 | 175 ft | 0 kts | 258° |
| 2026-04-30 17:51 | 13.07720 | -59.48863 | 175 ft | 13 kts | 249° |
| 2026-04-30 17:52 | 13.07664 | -59.49077 | 175 ft | 31 kts | 255° |
| 2026-04-30 17:53 | 13.07404 | -59.50145 | 175 ft | 26 kts | 255° |
| 2026-04-30 17:54 | 13.07222 | -59.50720 | 175 ft | 0 kts | 183° |
| 2026-04-30 17:55 | 13.07127 | -59.50582 | 176 ft | 10 kts | 74° |
| 2026-04-30 17:56 | 13.07989 | -59.47406 | 1388 ft | 160 kts | 72° |
| 2026-04-30 17:57 | 13.11137 | -59.45388 | 2658 ft | 244 kts | 351° |
| 2026-04-30 17:58 | 13.15137 | -59.49281 | 4087 ft | 282 kts | 313° |
| 2026-04-30 17:59 | 13.21040 | -59.54515 | 7136 ft | 283 kts | 326° |
| 2026-04-30 18:00 | 13.27932 | -59.58923 | 9636 ft | 300 kts | 330° |
| 2026-04-30 18:00 | 13.33001 | -59.61891 | 10444 ft | 339 kts | 332° |
| 2026-04-30 18:01 | 13.38077 | -59.64798 | 10926 ft | 372 kts | 332° |
| 2026-04-30 18:02 | 13.44991 | -59.68733 | 12376 ft | 383 kts | 332° |
| 2026-04-30 18:02 | 13.51294 | -59.72313 | 13742 ft | 394 kts | 332° |
| 2026-04-30 18:03 | 13.58584 | -59.76455 | 15254 ft | 401 kts | 331° |
| 2026-04-30 18:04 | 13.66002 | -59.80672 | 16698 ft | 410 kts | 330° |
| 2026-04-30 18:05 | 13.76081 | -59.86408 | 18523 ft | 419 kts | 330° |
| 2026-04-30 18:06 | 13.86403 | -59.92286 | 20076 ft | 427 kts | 330° |
| 2026-04-30 18:07 | 13.96922 | -59.98284 | 21574 ft | 436 kts | 329° |
| 2026-04-30 18:08 | 14.04914 | -60.02844 | 22651 ft | 443 kts | 329° |
| 2026-04-30 18:09 | 14.15769 | -60.09045 | 23934 ft | 450 kts | 329° |
| 2026-04-30 18:10 | 14.26779 | -60.15340 | 25135 ft | 454 kts | 329° |
| 2026-04-30 18:11 | 14.37869 | -60.21689 | 26281 ft | 458 kts | 328° |
| 2026-04-30 18:11 | 14.46251 | -60.26493 | 27040 ft | 462 kts | 328° |
| 2026-04-30 18:12 | 14.54731 | -60.31358 | 27774 ft | 466 kts | 328° |
| 2026-04-30 18:13 | 14.60382 | -60.34602 | 28237 ft | 468 kts | 328° |
| 2026-04-30 18:13 | 14.67588 | -60.39450 | 29262 ft | 456 kts | 313° |
| 2026-04-30 18:14 | 14.72784 | -60.44821 | 30050 ft | 453 kts | 312° |
| 2026-04-30 18:15 | 14.79381 | -60.51672 | 31287 ft | 440 kts | 312° |
| 2026-04-30 18:15 | 14.85846 | -60.58306 | 31940 ft | 438 kts | 312° |
| 2026-04-30 18:16 | 14.94444 | -60.67116 | 31940 ft | 432 kts | 312° |
| 2026-04-30 18:17 | 14.98706 | -60.71489 | 31948 ft | 431 kts | 312° |
| 2026-04-30 18:18 | 15.05057 | -60.78009 | 31941 ft | 428 kts | 312° |
| 2026-04-30 18:18 | 15.07166 | -60.80175 | 31663 ft | 427 kts | 312° |
| 2026-04-30 18:18 | 15.09275 | -60.82341 | 31347 ft | 424 kts | 312° |
| 2026-04-30 18:18 | 15.11341 | -60.84465 | 30906 ft | 422 kts | 312° |
| 2026-04-30 18:19 | 15.13421 | -60.86604 | 30493 ft | 420 kts | 312° |
| 2026-04-30 18:19 | 15.15500 | -60.88743 | 30037 ft | 421 kts | 312° |
| 2026-04-30 18:19 | 15.17583 | -60.90887 | 29535 ft | 421 kts | 312° |
| 2026-04-30 18:19 | 15.19661 | -60.93025 | 29066 ft | 420 kts | 312° |
| 2026-04-30 18:20 | 15.21732 | -60.95157 | 28602 ft | 419 kts | 312° |
| 2026-04-30 18:20 | 15.23772 | -60.97257 | 28155 ft | 418 kts | 312° |
| 2026-04-30 18:20 | 15.25836 | -60.99384 | 27705 ft | 416 kts | 312° |
| 2026-04-30 18:20 | 15.27891 | -61.01500 | 27259 ft | 415 kts | 311° |
| 2026-04-30 18:21 | 15.29917 | -61.03588 | 26828 ft | 413 kts | 311° |
| 2026-04-30 18:21 | 15.31961 | -61.05695 | 26385 ft | 410 kts | 311° |
| 2026-04-30 18:21 | 15.33984 | -61.07781 | 25954 ft | 408 kts | 311° |
| 2026-04-30 18:21 | 15.35995 | -61.09855 | 25501 ft | 406 kts | 311° |
| 2026-04-30 18:22 | 15.37968 | -61.11891 | 25081 ft | 404 kts | 311° |
| 2026-04-30 18:22 | 15.41945 | -61.15997 | 24208 ft | 402 kts | 311° |
| 2026-04-30 18:22 | 15.43927 | -61.18045 | 23774 ft | 400 kts | 311° |
| 2026-04-30 18:23 | 15.45897 | -61.20080 | 23311 ft | 399 kts | 311° |
| 2026-04-30 18:23 | 15.47855 | -61.22105 | 22913 ft | 396 kts | 311° |
| 2026-04-30 18:23 | 15.49800 | -61.24116 | 22482 ft | 393 kts | 311° |
| 2026-04-30 18:23 | 15.51706 | -61.26086 | 22061 ft | 390 kts | 311° |
| 2026-04-30 18:24 | 15.55515 | -61.30046 | 21234 ft | 383 kts | 309° |
| 2026-04-30 18:24 | 15.57239 | -61.32131 | 20825 ft | 376 kts | 306° |
| 2026-04-30 18:24 | 15.58817 | -61.34224 | 20436 ft | 366 kts | 304° |
| 2026-04-30 18:25 | 15.60340 | -61.36299 | 20048 ft | 356 kts | 304° |
| 2026-04-30 18:25 | 15.63279 | -61.40285 | 19303 ft | 341 kts | 304° |
| 2026-04-30 18:25 | 15.64715 | -61.42210 | 18941 ft | 334 kts | 305° |
| 2026-04-30 18:26 | 15.67566 | -61.46002 | 18207 ft | 332 kts | 305° |
| 2026-04-30 18:26 | 15.68965 | -61.47856 | 17826 ft | 327 kts | 306° |
| 2026-04-30 18:26 | 15.70359 | -61.49699 | 17431 ft | 320 kts | 306° |
| 2026-04-30 18:27 | 15.73071 | -61.53281 | 16730 ft | 311 kts | 305° |
| 2026-04-30 18:27 | 15.74391 | -61.55025 | 16412 ft | 312 kts | 305° |
| 2026-04-30 18:28 | 15.77097 | -61.58606 | 15745 ft | 317 kts | 305° |
| 2026-04-30 18:28 | 15.78457 | -61.60403 | 15400 ft | 314 kts | 306° |
| 2026-04-30 18:28 | 15.81131 | -61.63937 | 14738 ft | 310 kts | 306° |
| 2026-04-30 18:29 | 15.82461 | -61.65696 | 14409 ft | 309 kts | 306° |
| 2026-04-30 18:29 | 15.86405 | -61.70916 | 13385 ft | 305 kts | 306° |
| 2026-04-30 18:30 | 15.89008 | -61.74363 | 12702 ft | 301 kts | 307° |
| 2026-04-30 18:30 | 15.91584 | -61.77776 | 12056 ft | 297 kts | 307° |
| 2026-04-30 18:31 | 15.92857 | -61.79463 | 11736 ft | 296 kts | 307° |
| 2026-04-30 18:31 | 15.95379 | -61.82806 | 11102 ft | 294 kts | 307° |
| 2026-04-30 18:32 | 15.97895 | -61.86144 | 10517 ft | 292 kts | 307° |
| 2026-04-30 18:32 | 15.99139 | -61.87794 | 10382 ft | 286 kts | 307° |
| 2026-04-30 18:32 | 16.01613 | -61.91076 | 10141 ft | 291 kts | 307° |
| 2026-04-30 18:33 | 16.03073 | -61.92493 | 9982 ft | 291 kts | 332° |
| 2026-04-30 18:33 | 16.06959 | -61.93157 | 9532 ft | 282 kts | 0° |
| 2026-04-30 18:33 | 16.08897 | -61.93138 | 9236 ft | 280 kts | 1° |
| 2026-04-30 18:34 | 16.10838 | -61.93110 | 8987 ft | 277 kts | 1° |
| 2026-04-30 18:34 | 16.14691 | -61.93076 | 8452 ft | 275 kts | 1° |
| 2026-04-30 18:34 | 16.16589 | -61.93068 | 8172 ft | 275 kts | 1° |
| 2026-04-30 18:35 | 16.18503 | -61.93063 | 7902 ft | 275 kts | 1° |
| 2026-04-30 18:35 | 16.20419 | -61.93060 | 7638 ft | 275 kts | 1° |
| 2026-04-30 18:35 | 16.22314 | -61.93059 | 7366 ft | 274 kts | 1° |
| 2026-04-30 18:36 | 16.26145 | -61.93059 | 6818 ft | 274 kts | 1° |
| 2026-04-30 18:36 | 16.28030 | -61.93059 | 6538 ft | 273 kts | 1° |
| 2026-04-30 18:36 | 16.31572 | -61.92201 | 6097 ft | 254 kts | 43° |
| 2026-04-30 18:37 | 16.32576 | -61.90801 | 5997 ft | 232 kts | 68° |
| 2026-04-30 18:37 | 16.32990 | -61.89249 | 5874 ft | 215 kts | 85° |
| 2026-04-30 18:37 | 16.32915 | -61.87780 | 5796 ft | 196 kts | 100° |
| 2026-04-30 18:37 | 16.32674 | -61.86414 | 5708 ft | 189 kts | 102° |
| 2026-04-30 18:38 | 16.32425 | -61.85092 | 5603 ft | 184 kts | 102° |
| 2026-04-30 18:38 | 16.32175 | -61.83755 | 5412 ft | 190 kts | 102° |
| 2026-04-30 18:38 | 16.31922 | -61.82395 | 5217 ft | 193 kts | 101° |
| 2026-04-30 18:38 | 16.31665 | -61.81009 | 5023 ft | 195 kts | 101° |
| 2026-04-30 18:39 | 16.31415 | -61.79652 | 4787 ft | 191 kts | 101° |
| 2026-04-30 18:39 | 16.31170 | -61.78315 | 4562 ft | 184 kts | 102° |
| 2026-04-30 18:39 | 16.30935 | -61.77036 | 4400 ft | 176 kts | 101° |
| 2026-04-30 18:39 | 16.30713 | -61.75829 | 4183 ft | 160 kts | 102° |
| 2026-04-30 18:40 | 16.30508 | -61.74718 | 3982 ft | 154 kts | 101° |
| 2026-04-30 18:40 | 16.30314 | -61.73658 | 3779 ft | 150 kts | 100° |
| 2026-04-30 18:40 | 16.30116 | -61.72591 | 3571 ft | 150 kts | 100° |
| 2026-04-30 18:40 | 16.29919 | -61.71531 | 3376 ft | 148 kts | 100° |
| 2026-04-30 18:41 | 16.29724 | -61.70473 | 3159 ft | 148 kts | 99° |
| 2026-04-30 18:41 | 16.29537 | -61.69463 | 2982 ft | 140 kts | 100° |
| 2026-04-30 18:41 | 16.29348 | -61.68446 | 2790 ft | 145 kts | 100° |
| 2026-04-30 18:41 | 16.29153 | -61.67392 | 2584 ft | 147 kts | 99° |
| 2026-04-30 18:42 | 16.28965 | -61.66370 | 2357 ft | 145 kts | 99° |
| 2026-04-30 18:42 | 16.28594 | -61.64365 | 1981 ft | 138 kts | 99° |
| 2026-04-30 18:42 | 16.28412 | -61.63391 | 1787 ft | 136 kts | 100° |
| 2026-04-30 18:45 | 16.26595 | -61.53545 | 27 ft | 90 kts | 101° |
| 2026-04-30 18:45 | 16.26528 | -61.53179 | 25 ft | 42 kts | 100° |
| 2026-04-30 18:45 | 16.26518 | -61.53012 | 23 ft | 20 kts | 58° |
| 2026-04-30 18:46 | 16.26633 | -61.52968 | 26 ft | 17 kts | 9° |
| 2026-04-30 18:46 | 16.26676 | -61.52960 | 26 ft | 0 kts | 11° |
| 2026-04-30 18:46 | 16.26677 | -61.52960 | 26 ft | 1 kts | 11° |
| 2026-04-30 18:47 | 16.26718 | -61.52952 | 27 ft | 10 kts | 11° |
| 2026-04-30 18:47 | 16.26753 | -61.52945 | 28 ft | 0 kts | 12° |
| 2026-04-30 18:47 | 16.26791 | -61.52937 | 26 ft | 8 kts | 12° |
| 2026-04-30 18:48 | 16.26846 | -61.52862 | 24 ft | 16 kts | 94° |
| 2026-04-30 18:48 | 16.26836 | -61.52800 | 24 ft | 12 kts | 100° |
| 2026-04-30 18:48 | 16.26828 | -61.52749 | 24 ft | 0 kts | 99° |
| 2026-04-30 18:48 | 16.26825 | -61.52730 | 24 ft | 8 kts | 99° |
| 2026-04-30 18:49 | 16.26841 | -61.52695 | 28 ft | 9 kts | 43° |
| 2026-04-30 18:49 | 16.26896 | -61.52676 | 28 ft | 7 kts | 9° |
| 2026-04-30 18:49 | 16.26912 | -61.52674 | 25 ft | 0 kts | 9° |
| 2026-04-30 18:49 | 16.26915 | -61.52673 | 25 ft | 0 kts | 9° |